Time;durP1;ratioP1;P1;durP2;ratioP2;P2;SDS_P1;SDS_P2;PMS_P1;PMS_P2;Temp;Humidity;BMP_temperature;BMP_pressure;BME280_temperature;BME280_humidity;BME280_pressure;Samples;Min_cycle;Max_cycle;Signal;HPM_P1;HPM_P2
2022/03/30 00:00:20;;;;;;;58.15;31.93;;;;;;;6.25;81.75;98332.92;1761584;81;21099;-71
2022/03/30 00:02:47;;;;;;;59.03;31.68;;;;;;;6.27;81.81;98332.05;1764886;81;21044;-70
2022/03/30 00:05:14;;;;;;;54.25;32.30;;;;;;;6.29;81.88;98338.02;1764592;81;20925;-71
2022/03/30 00:07:45;;;;;;;52.48;31.05;;;;;;;6.32;81.89;98338.73;1764904;80;21404;-70
2022/03/30 00:10:20;;;;;;;52.03;30.88;;;;;;;6.31;81.91;98336.55;1761205;81;26897;-71
2022/03/30 00:12:49;;;;;;;48.05;28.83;;;;;;;6.32;81.92;98336.81;1764745;81;20917;-70
2022/03/30 00:15:24;;;;;;;49.98;30.05;;;;;;;6.33;81.89;98338.97;1764887;81;20890;-71
2022/03/30 00:17:52;;;;;;;65.72;34.35;;;;;;;6.32;81.90;98337.37;1764447;81;20969;-72
2022/03/30 00:20:20;;;;;;;63.15;34.55;;;;;;;6.35;81.98;98342.77;1765007;81;20973;-70
2022/03/30 00:22:54;;;;;;;56.48;32.33;;;;;;;6.36;82.07;98340.27;1743408;81;21459;-69
2022/03/30 00:25:22;;;;;;;64.97;34.83;;;;;;;6.39;82.04;98344.55;1764553;81;21085;-69
2022/03/30 00:27:54;;;;;;;68.50;35.48;;;;;;;6.40;81.99;98339.30;1764779;81;20831;-71
2022/03/30 00:30:23;;;;;;;64.50;35.88;;;;;;;6.39;82.01;98340.99;1764870;81;21045;-68
2022/03/30 00:32:51;;;;;;;63.38;36.85;;;;;;;6.38;82.18;98338.02;1764938;81;21058;-68
2022/03/30 00:35:21;;;;;;;64.20;36.93;;;;;;;6.37;82.26;98344.05;1765306;81;21025;-71
2022/03/30 00:37:49;;;;;;;66.05;36.30;;;;;;;6.36;82.37;98339.72;1764838;81;21808;-70
2022/03/30 00:40:21;;;;;;;56.37;32.55;;;;;;;6.35;82.47;98336.72;1765022;81;21580;-70
2022/03/30 00:42:50;;;;;;;57.10;31.17;;;;;;;6.37;82.48;98337.21;1764232;81;20945;-70
2022/03/30 00:45:23;;;;;;;68.40;35.70;;;;;;;6.38;82.42;98331.97;1764900;81;20981;-70
2022/03/30 00:47:57;;;;;;;57.40;32.55;;;;;;;6.39;82.44;98333.59;1764692;81;20990;-67
2022/03/30 00:50:27;;;;;;;62.45;34.38;;;;;;;6.42;82.46;98330.77;1761307;81;20996;-69
2022/03/30 00:52:56;;;;;;;67.65;35.45;;;;;;;6.41;82.44;98330.54;1750368;81;20881;-69
2022/03/30 00:55:22;;;;;;;60.12;34.35;;;;;;;6.40;82.45;98328.36;1734700;82;21008;-68
2022/03/30 00:57:49;;;;;;;60.83;33.88;;;;;;;6.41;82.58;98331.91;1712587;82;20949;-65
2022/03/30 01:00:17;;;;;;;56.13;31.87;;;;;;;6.41;82.60;98325.88;1734413;82;21001;-71
2022/03/30 01:02:49;;;;;;;52.65;30.60;;;;;;;6.41;82.64;98323.70;1734494;82;21215;-71
2022/03/30 01:05:17;;;;;;;60.23;31.27;;;;;;;6.42;82.74;98324.74;1734619;82;20933;-69
2022/03/30 01:07:48;;;;;;;57.53;31.37;;;;;;;6.46;82.71;98324.91;1734379;82;21024;-70
2022/03/30 01:10:16;;;;;;;59.60;34.15;;;;;;;6.47;82.79;98316.11;1737476;82;20976;-70
2022/03/30 01:12:52;;;;;;;61.48;33.08;;;;;;;6.51;82.85;98323.94;1734471;82;21528;-70
2022/03/30 01:15:23;;;;;;;53.20;32.38;;;;;;;6.53;82.77;98323.05;1698791;83;21106;-67
2022/03/30 01:17:51;;;;;;;47.30;28.23;;;;;;;6.53;82.74;98323.05;1699107;84;21041;-71
2022/03/30 01:20:23;;;;;;;59.93;31.12;;;;;;;6.50;82.38;98319.02;1696328;84;20951;-67
2022/03/30 01:22:51;;;;;;;59.55;34.10;;;;;;;6.45;82.42;98310.97;1699642;83;21011;-72
2022/03/30 01:25:19;;;;;;;58.68;32.45;;;;;;;6.43;82.50;98314.02;1698891;84;20986;-68
2022/03/30 01:27:51;;;;;;;63.45;33.55;;;;;;;6.41;82.43;98322.33;1699690;84;21562;-71
2022/03/30 01:33:11;;;;;;;52.00;29.92;;;;;;;6.34;82.86;98321.44;1699310;84;20935;-71
2022/03/30 01:35:43;;;;;;;48.55;29.65;;;;;;;6.33;83.07;98317.89;1698341;84;20946;-72
2022/03/30 01:38:13;;;;;;;49.23;29.30;;;;;;;6.35;83.10;98317.57;1699036;84;20979;-72
2022/03/30 01:40:41;;;;;;;62.80;36.45;;;;;;;6.38;83.26;98321.61;1699493;83;20851;-71
2022/03/30 01:43:14;;;;;;;64.80;34.43;;;;;;;6.37;83.11;98318.05;1695921;84;21007;-71
2022/03/30 01:45:42;;;;;;;62.05;34.92;;;;;;;6.36;83.22;98317.83;1699328;84;21401;-72
2022/03/30 01:48:09;;;;;;;60.98;33.85;;;;;;;6.37;83.33;98315.87;1699077;84;21471;-70
2022/03/30 01:50:37;;;;;;;63.80;34.78;;;;;;;6.40;83.40;98317.41;1699229;83;20990;-72
2022/03/30 01:53:09;;;;;;;71.87;39.98;;;;;;;6.43;83.43;98320.87;1695989;84;21086;-71
2022/03/30 01:55:38;;;;;;;63.68;35.17;;;;;;;6.45;83.38;98321.36;1698918;84;20904;-71
2022/03/30 01:58:09;;;;;;;56.33;35.40;;;;;;;6.49;83.36;98316.05;1689668;83;21489;-70
2022/03/30 02:00:38;;;;;;;62.17;36.58;;;;;;;6.52;83.45;98315.40;1658696;85;21037;-72
2022/03/30 02:03:13;;;;;;;73.20;40.65;;;;;;;6.57;83.61;98319.90;1658211;86;21172;-66
2022/03/30 02:05:41;;;;;;;69.35;37.75;;;;;;;6.62;83.74;98321.11;1658583;86;21083;-69
2022/03/30 02:08:12;;;;;;;63.50;36.35;;;;;;;6.63;83.45;98313.70;1658260;85;21028;-70
2022/03/30 02:10:40;;;;;;;54.88;30.23;;;;;;;6.63;83.36;98310.97;1658549;86;21442;-71
2022/03/30 02:13:09;;;;;;;46.20;27.55;;;;;;;6.63;83.26;98306.86;1658854;86;21089;-68
2022/03/30 02:15:38;;;;;;;56.80;34.10;;;;;;;6.66;83.17;98315.80;1654966;86;20992;-67
2022/03/30 02:18:07;;;;;;;63.90;34.88;;;;;;;6.70;83.10;98320.88;1658422;86;21144;-70
2022/03/30 02:20:43;;;;;;;64.17;33.42;;;;;;;6.73;82.86;98324.89;1658430;86;21008;-68
2022/03/30 02:23:10;;;;;;;49.35;31.33;;;;;;;6.73;82.82;98315.30;1658579;86;21127;-71
2022/03/30 02:25:41;;;;;;;49.45;28.65;;;;;;;6.74;82.55;98294.44;1654911;86;21021;-72
2022/03/30 02:28:11;;;;;;;48.45;26.27;;;;;;;6.75;82.34;98290.59;1658451;86;21036;-69
2022/03/30 02:30:39;;;;;;;47.08;26.07;;;;;;;6.78;82.23;98293.23;1658489;86;21786;-71
2022/03/30 02:33:08;;;;;;;43.73;24.82;;;;;;;6.82;82.00;98301.05;1658291;86;20965;-69
2022/03/30 02:35:36;;;;;;;46.73;22.77;;;;;;;6.82;81.70;98295.58;1658454;86;21107;-70
2022/03/30 02:38:02;;;;;;;51.45;29.52;;;;;;;6.82;81.71;98295.58;1658533;86;21553;-72
2022/03/30 02:40:29;;;;;;;54.73;26.50;;;;;;;6.85;81.68;98299.03;1637502;86;21081;-72
2022/03/30 02:42:59;;;;;;;43.90;24.80;;;;;;;6.89;81.45;98295.08;1658472;86;21255;-69
2022/03/30 02:45:26;;;;;;;48.58;24.87;;;;;;;6.89;81.08;98279.44;1658715;86;21056;-72
2022/03/30 02:50:49;;;;;;;38.10;21.93;;;;;;;6.89;80.72;98271.80;1658611;86;20944;-72
2022/03/30 02:53:18;;;;;;;39.08;20.48;;;;;;;6.90;80.49;98272.84;1658604;86;21050;-71
2022/03/30 02:55:46;;;;;;;38.73;18.90;;;;;;;6.92;80.22;98280.73;1658507;86;21301;-71
2022/03/30 02:58:23;;;;;;;38.83;20.77;;;;;;;6.92;79.45;98289.77;1664271;84;20959;-70
2022/03/30 03:01:01;;;;;;;45.40;23.77;;;;;;;6.87;78.92;98282.27;1675440;84;21011;-72
2022/03/30 03:03:37;;;;;;;45.43;25.23;;;;;;;6.76;78.82;98281.23;1677335;85;21401;-72
2022/03/30 03:06:05;;;;;;;45.52;25.40;;;;;;;;;;1677037;85;21477;-73
2022/03/30 03:08:43;;;;;;;34.03;20.40;;;;;;;6.76;78.95;98275.77;1676938;85;20959;-68
2022/03/30 03:11:12;;;;;;;37.40;21.60;;;;;;;6.77;78.74;98273.26;1731894;82;20921;-72
2022/03/30 03:13:40;;;;;;;43.83;20.25;;;;;;;6.81;78.56;98266.57;1734311;81;22357;-71
2022/03/30 03:16:13;;;;;;;34.92;19.10;;;;;;;6.82;78.42;98270.34;1734275;82;21045;-70
2022/03/30 03:18:47;;;;;;;33.65;19.27;;;;;;;6.78;77.88;98268.03;1733939;82;21544;-72
2022/03/30 03:21:20;;;;;;;32.33;19.40;;;;;;;6.72;77.55;98274.80;1734637;82;21989;-73
2022/03/30 03:23:47;;;;;;;40.50;20.30;;;;;;;6.67;77.42;98270.30;1734279;82;21001;-72
2022/03/30 03:26:14;;;;;;;35.30;17.65;;;;;;;6.68;77.56;98277.95;1734431;82;20909;-71
2022/03/30 03:28:47;;;;;;;31.62;18.55;;;;;;;6.67;77.68;98277.73;1734399;82;20894;-72
2022/03/30 03:31:17;;;;;;;36.45;19.62;;;;;;;6.69;77.68;98280.37;1734331;82;20851;-73
2022/03/30 03:33:50;;;;;;;32.63;17.62;;;;;;;6.68;77.68;98285.61;1734928;82;21490;-72
2022/03/30 03:36:24;;;;;;;32.88;18.85;;;;;;;6.68;77.69;98280.14;1733096;82;21019;-73
2022/03/30 03:38:52;;;;;;;29.05;17.45;;;;;;;6.71;77.68;98285.52;1734147;82;20972;-72
2022/03/30 03:41:20;;;;;;;32.63;17.52;;;;;;;6.70;77.43;98289.39;1734089;82;20917;-72
2022/03/30 03:43:50;;;;;;;35.10;19.12;;;;;;;6.64;77.41;98288.75;1734631;82;20980;-67
2022/03/30 03:46:18;;;;;;;30.85;18.02;;;;;;;6.63;77.67;98290.44;1734310;82;21243;-72
2022/03/30 03:48:45;;;;;;;37.78;20.43;;;;;;;6.63;77.86;98303.57;1733930;82;21000;-69
2022/03/30 03:51:12;;;;;;;46.30;23.07;;;;;;;6.57;77.42;98313.05;1734510;82;20879;-70
2022/03/30 03:53:40;;;;;;;44.25;22.17;;;;;;;6.43;77.57;98319.50;1734348;82;21004;-70
2022/03/30 03:56:09;;;;;;;46.48;24.10;;;;;;;6.39;78.03;98328.68;1734008;82;20997;-67
2022/03/30 03:58:42;;;;;;;41.58;23.18;;;;;;;6.42;78.30;98330.77;1736234;82;20969;-70
2022/03/30 04:01:08;;;;;;;43.23;23.80;;;;;;;6.43;78.29;98330.45;1739677;82;20937;-68
2022/03/30 04:03:35;;;;;;;44.63;23.55;;;;;;;6.46;78.45;98327.64;1739529;82;21037;-69
2022/03/30 04:06:12;;;;;;;47.60;23.00;;;;;;;6.51;78.59;98336.25;1739450;82;20945;-68
2022/03/30 04:08:41;;;;;;;51.83;24.90;;;;;;;6.54;78.60;98332.31;1744911;82;20929;-69
2022/03/30 04:11:11;;;;;;;50.50;26.30;;;;;;;6.58;78.55;98340.10;1739618;82;20956;-69
2022/03/30 04:13:38;;;;;;;49.90;27.22;;;;;;;6.60;78.49;98335.70;1739578;81;20981;-69
2022/03/30 04:16:05;;;;;;;47.55;26.42;;;;;;;6.63;78.36;98337.78;1739561;82;20986;-71
2022/03/30 04:18:32;;;;;;;46.80;25.37;;;;;;;6.66;78.41;98340.43;1739236;82;21019;-71
2022/03/30 04:20:59;;;;;;;48.75;24.75;;;;;;;6.69;78.42;98346.63;1739892;82;20973;-70
2022/03/30 04:23:28;;;;;;;58.52;25.45;;;;;;;6.72;78.42;98345.97;1739302;82;21542;-68
2022/03/30 04:25:55;;;;;;;48.28;25.40;;;;;;;6.76;78.47;98346.14;1739227;82;20994;-72
2022/03/30 04:28:22;;;;;;;49.75;26.25;;;;;;;6.78;78.49;98348.81;1739592;82;20992;-71
2022/03/30 04:30:49;;;;;;;48.45;27.87;;;;;;;6.81;78.49;98355.00;1739574;82;20925;-70
2022/03/30 04:33:16;;;;;;;48.68;27.60;;;;;;;6.85;78.49;98356.53;1739440;82;21004;-71
2022/03/30 04:35:44;;;;;;;54.08;28.62;;;;;;;6.88;78.49;98364.65;1739651;81;21725;-70
2022/03/30 04:38:10;;;;;;;46.33;25.57;;;;;;;6.89;78.46;98361.59;1739828;82;20965;-70
2022/03/30 04:40:44;;;;;;;51.80;27.00;;;;;;;6.88;78.36;98367.39;1739024;82;21177;-68
2022/03/30 04:43:15;;;;;;;50.45;25.88;;;;;;;6.89;78.47;98371.76;1735886;82;20881;-71
2022/03/30 04:45:44;;;;;;;46.25;24.95;;;;;;;6.90;78.59;98368.69;1739551;82;20918;-73
2022/03/30 04:48:14;;;;;;;42.43;24.87;;;;;;;6.93;78.62;98377.63;1720277;82;20985;-72
2022/03/30 04:50:44;;;;;;;48.17;25.77;;;;;;;6.96;78.66;98376.16;1739448;82;20917;-70
2022/03/30 04:53:10;;;;;;;57.85;28.95;;;;;;;7.01;78.75;98375.99;1739588;82;20981;-72
2022/03/30 04:55:44;;;;;;;48.20;27.87;;;;;;;7.04;78.91;98372.63;1735445;82;20968;-69
2022/03/30 04:58:11;;;;;;;47.70;27.20;;;;;;;7.06;78.93;98378.56;1738794;82;20981;-71
2022/03/30 05:00:42;;;;;;;45.28;27.62;;;;;;;7.10;79.09;98379.28;1734275;82;21186;-69
2022/03/30 05:03:18;;;;;;;58.02;28.02;;;;;;;7.12;79.17;98379.77;1714897;82;21016;-70
2022/03/30 05:05:45;;;;;;;53.10;30.37;;;;;;;7.15;79.25;98378.56;1734266;82;20977;-70
2022/03/30 05:08:17;;;;;;;48.55;27.80;;;;;;;7.20;79.20;98381.69;1734314;82;20946;-70
2022/03/30 05:10:46;;;;;;;56.92;30.60;;;;;;;7.24;79.21;98388.70;1733273;82;21298;-70
2022/03/30 05:13:17;;;;;;;60.75;32.75;;;;;;;7.30;79.29;98386.05;1733464;81;21139;-71
2022/03/30 05:15:48;;;;;;;67.70;36.25;;;;;;;7.37;79.17;98388.28;1729770;82;20894;-72
2022/03/30 05:18:15;;;;;;;64.42;37.65;;;;;;;7.45;78.99;98393.48;1734194;82;20879;-72
2022/03/30 05:20:44;;;;;;;69.80;37.30;;;;;;;7.50;78.73;98398.24;1733920;82;20937;-70
2022/03/30 05:23:16;;;;;;;78.65;42.85;;;;;;;7.58;78.41;98405.38;1737957;82;20949;-72
2022/03/30 05:25:53;;;;;;;95.22;54.08;;;;;;;7.64;78.42;98402.13;1734746;82;20843;-70
2022/03/30 05:28:20;;;;;;;90.40;54.03;;;;;;;7.70;78.30;98398.65;1734132;82;20929;-72
2022/03/30 05:30:47;;;;;;;78.72;44.05;;;;;;;7.75;78.01;98393.55;1734070;82;20970;-72
2022/03/30 05:33:16;;;;;;;140.35;80.60;;;;;;;7.80;78.05;98391.99;1734806;82;21482;-72
2022/03/30 05:35:45;;;;;;;150.57;88.70;;;;;;;7.85;77.75;98391.81;1734327;82;20901;-73
2022/03/30 05:38:19;;;;;;;155.90;90.53;;;;;;;7.90;77.39;98393.56;1667698;86;21476;-70
2022/03/30 05:40:47;;;;;;;131.18;78.40;;;;;;;7.94;77.26;98389.59;1693455;84;21487;-71
2022/03/30 05:43:15;;;;;;;130.63;73.12;;;;;;;7.94;77.08;98386.85;1734846;82;20914;-71
2022/03/30 05:45:46;;;;;;;118.13;62.38;;;;;;;7.91;77.04;98389.70;1734304;82;20885;-72
2022/03/30 05:48:13;;;;;;;96.35;52.10;;;;;;;7.91;77.10;98391.08;1734192;82;21002;-72
2022/03/30 05:50:41;;;;;;;106.25;56.28;;;;;;;7.90;77.02;98392.19;1734295;82;21056;-70
2022/03/30 05:53:14;;;;;;;127.47;66.25;;;;;;;7.91;76.93;98404.78;1734596;82;20982;-67
2022/03/30 05:55:44;;;;;;;146.57;76.28;;;;;;;7.91;76.77;98402.05;1734410;82;21009;-72
2022/03/30 05:58:14;;;;;;;165.43;87.17;;;;;;;7.93;76.59;98398.41;1734716;82;21084;-72
2022/03/30 06:00:42;;;;;;;158.18;81.30;;;;;;;7.94;76.50;98397.82;1734425;82;20878;-72
2022/03/30 06:03:10;;;;;;;143.52;77.45;;;;;;;7.96;76.22;98396.93;1734203;82;21795;-69
2022/03/30 06:05:38;;;;;;;139.20;70.05;;;;;;;7.97;76.09;98397.16;1734081;82;20974;-72
2022/03/30 06:08:09;;;;;;;110.03;57.65;;;;;;;8.01;75.88;98390.70;1737176;82;21028;-71
2022/03/30 06:10:41;;;;;;;104.27;52.15;;;;;;;8.06;75.70;98392.45;1734315;82;20973;-73
2022/03/30 06:13:11;;;;;;;108.90;50.40;;;;;;;8.12;75.55;98402.09;1699554;81;21007;-72
2022/03/30 06:15:43;;;;;;;100.40;47.70;;;;;;;8.17;75.10;98399.75;1734235;82;20882;-71
2022/03/30 06:18:13;;;;;;;102.22;51.28;;;;;;;8.23;75.01;98400.34;1734926;82;21056;-72
2022/03/30 06:20:46;;;;;;;101.60;49.85;;;;;;;8.27;74.95;98404.05;1734594;82;20901;-73
2022/03/30 06:23:13;;;;;;;108.20;56.85;;;;;;;8.31;74.55;98409.68;1734156;82;21501;-70
2022/03/30 06:25:43;;;;;;;111.22;54.20;;;;;;;8.32;74.27;98404.41;1734259;82;20954;-73
2022/03/30 06:28:10;;;;;;;113.80;54.50;;;;;;;8.33;74.07;98408.20;1733767;82;21585;-70
2022/03/30 06:30:38;;;;;;;95.85;50.00;;;;;;;8.35;74.01;98408.67;1734191;82;20973;-72
2022/03/30 06:33:05;;;;;;;102.30;48.52;;;;;;;8.36;73.91;98413.61;1734190;82;21489;-71
2022/03/30 06:35:33;;;;;;;90.32;47.17;;;;;;;8.37;73.85;98407.78;1733297;82;20898;-72
2022/03/30 06:38:02;;;;;;;83.67;45.35;;;;;;;8.42;73.74;98408.15;1737663;82;20997;-73
2022/03/30 06:40:32;;;;;;;98.05;51.30;;;;;;;8.46;73.68;98400.84;1732818;82;21820;-72
2022/03/30 06:43:00;;;;;;;112.30;54.08;;;;;;;8.48;72.74;98405.44;1734048;82;20886;-72
2022/03/30 06:45:29;;;;;;;117.65;59.08;;;;;;;8.42;72.55;98397.16;1734184;82;21015;-67
2022/03/30 06:48:04;;;;;;;111.97;56.53;;;;;;;8.46;72.62;98399.46;1734268;82;20985;-71
2022/03/30 06:50:35;;;;;;;114.72;56.08;;;;;;;8.55;72.19;98402.75;1734576;82;20929;-71
2022/03/30 06:53:05;;;;;;;117.10;55.70;;;;;;;8.62;72.21;98400.28;1733778;82;21972;-71
2022/03/30 06:55:33;;;;;;;101.40;49.40;;;;;;;8.70;71.80;98407.65;1734045;82;20870;-70
2022/03/30 06:58:03;;;;;;;93.10;49.27;;;;;;;8.76;71.11;98414.56;1734269;82;20925;-70
2022/03/30 07:00:33;;;;;;;84.28;42.67;;;;;;;8.80;70.68;98416.64;1671038;85;21120;-69
2022/03/30 07:03:00;;;;;;;71.92;38.65;;;;;;;8.84;70.19;98412.06;1699431;84;20933;-71
2022/03/30 07:05:28;;;;;;;69.45;34.60;;;;;;;8.85;69.96;98410.95;1699603;84;21259;-70
2022/03/30 07:10:42;;;;;;;62.60;31.97;;;;;;;8.87;69.79;98409.45;1699418;84;20943;-70
2022/03/30 07:13:16;;;;;;;59.73;30.25;;;;;;;8.89;69.24;98409.12;1695844;84;20939;-70
2022/03/30 07:15:43;;;;;;;63.23;32.13;;;;;;;8.89;69.04;98411.86;1699547;84;20951;-70
2022/03/30 07:18:13;;;;;;;64.87;34.30;;;;;;;8.89;69.23;98410.48;1699291;84;21007;-70
2022/03/30 07:20:41;;;;;;;70.78;37.53;;;;;;;8.91;68.99;98416.46;1699251;84;20982;-70
2022/03/30 07:23:10;;;;;;;67.53;37.35;;;;;;;8.94;68.99;98410.29;1699229;84;21025;-67
2022/03/30 07:25:40;;;;;;;75.37;40.30;;;;;;;8.95;68.67;98411.91;1699228;84;20978;-69
2022/03/30 07:28:07;;;;;;;82.60;42.80;;;;;;;8.95;68.56;98409.73;1699328;84;21010;-66
2022/03/30 07:30:37;;;;;;;79.12;44.35;;;;;;;8.94;68.47;98411.66;1699585;84;21805;-69
2022/03/30 07:33:08;;;;;;;71.90;38.80;;;;;;;8.95;68.38;98413.28;1679256;84;20997;-69
2022/03/30 07:35:39;;;;;;;85.45;40.38;;;;;;;8.94;68.10;98413.63;1699770;84;21424;-70
2022/03/30 07:38:11;;;;;;;63.63;36.90;;;;;;;8.91;67.84;98413.71;1699183;84;21054;-68
2022/03/30 07:40:46;;;;;;;62.90;32.80;;;;;;;8.90;67.94;98417.61;1695958;84;20883;-73
2022/03/30 07:43:21;;;;;;;47.85;28.07;;;;;;;8.89;68.13;98423.66;1699352;84;21800;-69
2022/03/30 07:45:53;;;;;;;51.18;27.32;;;;;;;8.91;67.82;98434.31;1697459;84;20931;-68
2022/03/30 07:48:25;;;;;;;43.05;24.00;;;;;;;8.92;67.86;98431.01;1699163;84;20964;-67
2022/03/30 07:50:59;;;;;;;44.83;25.68;;;;;;;8.94;67.50;98432.27;1698926;84;21476;-69
2022/03/30 07:53:28;;;;;;;44.42;25.88;;;;;;;8.96;67.51;98434.67;1698426;84;20990;-70
2022/03/30 07:55:59;;;;;;;43.63;25.12;;;;;;;8.98;67.47;98437.34;1699242;84;21949;-69
2022/03/30 07:58:27;;;;;;;37.08;23.38;;;;;;;9.01;67.20;98432.54;1699119;84;20962;-69
2022/03/30 08:00:56;;;;;;;46.40;25.40;;;;;;;9.03;67.31;98429.45;1695630;84;20952;-68
2022/03/30 08:03:23;;;;;;;41.68;25.30;;;;;;;9.06;67.12;98430.15;1694206;84;20971;-69
2022/03/30 08:05:51;;;;;;;44.70;24.72;;;;;;;9.09;66.80;98434.19;1694553;84;21007;-70
2022/03/30 08:08:22;;;;;;;41.25;25.23;;;;;;;9.10;66.43;98431.09;1694722;84;21128;-67
2022/03/30 08:10:53;;;;;;;46.83;26.00;;;;;;;9.12;66.53;98431.57;1694352;84;21428;-71
2022/03/30 08:13:24;;;;;;;43.95;26.27;;;;;;;9.15;66.49;98436.95;1694346;84;21011;-72
2022/03/30 08:15:53;;;;;;;41.42;24.77;;;;;;;9.20;65.77;98435.93;1694202;84;20931;-69
2022/03/30 08:18:22;;;;;;;43.20;25.40;;;;;;;9.22;65.68;98442.72;1694296;84;21543;-70
2022/03/30 08:23:43;;;;;;;46.23;27.42;;;;;;;9.25;65.04;98442.03;1690792;84;21447;-68
2022/03/30 08:26:13;;;;;;;53.33;29.05;;;;;;;9.25;65.21;98447.53;1693436;84;20931;-71
2022/03/30 08:28:41;;;;;;;46.13;26.48;;;;;;;9.28;64.78;98445.25;1694489;84;21055;-71
2022/03/30 08:31:09;;;;;;;56.02;29.77;;;;;;;9.27;64.75;98453.25;1694135;84;21480;-68
2022/03/30 08:33:36;;;;;;;46.83;27.32;;;;;;;9.24;64.78;98455.55;1694483;84;21152;-73
2022/03/30 08:36:07;;;;;;;49.40;27.65;;;;;;;9.24;64.81;98457.48;1694531;84;20903;-69
2022/03/30 08:38:38;;;;;;;60.67;30.45;;;;;;;9.24;65.11;98453.37;1694650;84;21014;-69
2022/03/30 08:41:05;;;;;;;52.43;29.48;;;;;;;9.25;65.04;98450.28;1694231;84;20904;-71
2022/03/30 08:43:37;;;;;;;51.53;28.87;;;;;;;9.28;65.00;98452.13;1691055;84;20895;-72
2022/03/30 08:46:07;;;;;;;49.80;28.57;;;;;;;9.28;65.15;98448.78;1694417;84;21094;-71
2022/03/30 08:48:36;;;;;;;53.13;29.25;;;;;;;9.30;65.31;98452.59;1694257;84;21535;-72
2022/03/30 08:51:07;;;;;;;53.58;28.30;;;;;;;9.31;65.44;98450.89;1694364;84;20860;-71
2022/03/30 08:53:47;;;;;;;59.88;28.55;;;;;;;9.34;65.51;98456.27;1670975;84;20991;-72
2022/03/30 08:56:20;;;;;;;53.17;30.27;;;;;;;9.37;65.70;98445.97;1688045;84;21412;-71
2022/03/30 08:58:49;;;;;;;65.42;31.27;;;;;;;9.43;65.87;98441.88;1694451;84;21219;-72
2022/03/30 09:01:20;;;;;;;62.35;32.67;;;;;;;9.47;66.03;98440.61;1698566;84;20935;-68
2022/03/30 09:03:58;;;;;;;56.92;32.42;;;;;;;9.50;66.11;98448.20;1635104;84;21503;-71
2022/03/30 09:06:39;;;;;;;56.40;31.90;;;;;;;9.52;66.12;98444.52;1699345;84;20956;-72
2022/03/30 09:09:10;;;;;;;66.57;32.70;;;;;;;9.50;66.30;98446.83;1694941;84;21089;-71
2022/03/30 09:11:53;;;;;;;53.08;29.42;;;;;;;9.47;66.49;98445.54;1699364;84;21582;-72
2022/03/30 09:14:29;;;;;;;45.25;26.82;;;;;;;9.47;66.41;98442.79;1695849;84;20903;-71
2022/03/30 09:17:03;;;;;;;43.83;24.82;;;;;;;9.45;66.14;98443.69;1699404;84;21524;-71
2022/03/30 09:19:36;;;;;;;44.53;25.30;;;;;;;9.43;65.55;98444.63;1699960;84;20983;-68
2022/03/30 09:22:02;;;;;;;36.00;22.73;;;;;;;9.39;65.75;98436.81;1695993;84;20884;-70
2022/03/30 09:24:36;;;;;;;32.20;21.55;;;;;;;9.37;65.45;98442.65;1699384;84;21143;-71
2022/03/30 09:27:08;;;;;;;35.90;23.90;;;;;;;9.31;65.50;98444.02;1679460;84;21610;-72
2022/03/30 09:29:37;;;;;;;37.42;23.57;;;;;;;9.29;66.09;98447.66;1679045;84;21006;-72
2022/03/30 09:32:09;;;;;;;46.92;24.45;;;;;;;9.29;66.87;98444.10;1699374;84;21428;-72
2022/03/30 09:34:55;;;;;;;42.67;25.20;;;;;;;9.16;67.17;98441.30;1698818;84;20999;-69
2022/03/30 09:37:24;;;;;;;43.38;25.45;;;;;;;9.15;68.06;98447.94;1699009;84;20991;-69
2022/03/30 09:39:54;;;;;;;39.13;24.82;;;;;;;9.16;68.82;98455.63;1699417;84;20934;-72
2022/03/30 09:42:28;;;;;;;37.25;23.00;;;;;;;9.15;69.01;98452.63;1699407;84;21050;-72
2022/03/30 09:44:58;;;;;;;41.45;25.50;;;;;;;9.09;69.27;98460.29;1699970;84;20928;-67
2022/03/30 09:47:38;;;;;;;47.83;26.20;;;;;;;8.98;69.95;98456.57;1699141;84;20974;-71
2022/03/30 09:50:08;;;;;;;42.65;28.00;;;;;;;8.91;70.35;98459.05;1679545;84;21428;-73
2022/03/30 09:52:35;;;;;;;41.75;24.55;;;;;;;8.82;70.77;98467.93;1699295;84;21034;-72
2022/03/30 09:55:07;;;;;;;42.58;25.02;;;;;;;8.74;71.59;98469.02;1699264;84;21400;-74
2022/03/30 09:57:42;;;;;;;43.63;25.43;;;;;;;8.59;72.26;98470.41;1699287;84;21556;-74
2022/03/30 10:00:20;;;;;;;41.18;24.67;;;;;;;8.49;73.04;98472.95;1699180;84;21050;-68
2022/03/30 10:02:51;;;;;;;39.98;25.70;;;;;;;8.47;73.82;98468.91;1697780;84;20971;-68
2022/03/30 10:05:21;;;;;;;43.95;26.00;;;;;;;8.45;74.44;98462.94;1699632;84;20935;-73
2022/03/30 10:07:58;;;;;;;40.85;24.32;;;;;;;8.43;74.96;98457.00;1685468;84;20983;-68
2022/03/30 10:10:25;;;;;;;39.65;24.00;;;;;;;8.40;75.33;98465.31;1699471;84;20871;-71
2022/03/30 10:12:54;;;;;;;38.00;21.20;;;;;;;8.41;75.96;98461.42;1679581;84;21015;-73
2022/03/30 10:15:22;;;;;;;38.95;22.98;;;;;;;8.45;76.56;98466.50;1699372;84;21169;-72
2022/03/30 10:17:51;;;;;;;41.02;24.63;;;;;;;8.50;76.98;98463.56;1699233;84;21479;-71
2022/03/30 10:20:31;;;;;;;34.85;23.45;;;;;;;8.55;77.38;98467.27;1680291;84;20979;-71
2022/03/30 10:23:28;;;;;;;39.35;24.98;;;;;;;8.57;77.62;98469.13;1699319;84;20983;-72
2022/03/30 10:26:35;;;;;;;37.98;24.67;;;;;;;8.57;77.88;98469.94;1696787;84;20954;-72
2022/03/30 10:29:11;;;;;;;36.40;23.50;;;;;;;8.56;78.49;98473.83;1699719;84;21075;-70
2022/03/30 10:31:47;;;;;;;43.05;24.57;;;;;;;8.50;79.07;98469.05;1699137;84;20943;-70
2022/03/30 10:34:28;;;;;;;36.28;22.45;;;;;;;8.47;79.58;98469.72;1696483;84;20974;-72
2022/03/30 10:37:09;;;;;;;38.55;24.18;;;;;;;8.46;79.90;98467.31;1699568;84;20939;-72
2022/03/30 10:40:07;;;;;;;39.90;23.57;;;;;;;8.45;80.46;98461.56;1699421;84;21472;-71
2022/03/30 10:43:00;;;;;;;38.20;23.73;;;;;;;8.46;80.82;98461.23;1679201;84;21157;-71
2022/03/30 10:45:46;;;;;;;41.60;23.65;;;;;;;8.47;80.96;98455.19;1699369;84;20935;-71
2022/03/30 10:48:21;;;;;;;43.48;24.25;;;;;;;8.44;80.96;98453.11;1676123;84;21034;-70
2022/03/30 10:51:14;;;;;;;39.08;25.15;;;;;;;8.44;81.22;98453.11;1699494;84;21051;-71
2022/03/30 10:53:49;;;;;;;38.13;23.75;;;;;;;8.46;81.62;98448.88;1699150;84;21400;-72
2022/03/30 10:56:24;;;;;;;38.90;25.37;;;;;;;8.46;81.37;98450.84;1699214;84;21210;-68
2022/03/30 10:59:01;;;;;;;38.80;24.57;;;;;;;8.43;81.66;98449.55;1675737;84;20891;-68
2022/03/30 11:01:34;;;;;;;39.92;25.55;;;;;;;8.43;81.97;98453.66;1699460;84;21058;-70
2022/03/30 11:04:14;;;;;;;42.62;24.45;;;;;;;8.46;82.26;98454.37;1696094;84;20967;-72
2022/03/30 11:06:43;;;;;;;35.63;23.67;;;;;;;8.51;82.39;98460.26;1699191;84;20987;-72
2022/03/30 11:09:28;;;;;;;39.80;23.67;;;;;;;8.55;82.65;98462.59;1699444;84;21918;-70
2022/03/30 11:12:17;;;;;;;35.58;22.15;;;;;;;8.60;82.29;98454.72;1696376;84;20975;-71
2022/03/30 11:14:46;;;;;;;35.50;23.65;;;;;;;8.65;82.34;98458.64;1698402;84;20939;-68
2022/03/30 11:17:35;;;;;;;37.50;23.45;;;;;;;8.71;82.28;98455.15;1693105;84;21468;-72
2022/03/30 11:20:06;;;;;;;38.13;24.05;;;;;;;8.71;82.05;98453.22;1699814;84;21059;-71
2022/03/30 11:22:36;;;;;;;27.58;16.85;;;;;;;8.74;82.51;98450.36;1699599;83;20923;-72
2022/03/30 11:25:20;;;;;;;34.73;21.48;;;;;;;8.79;82.13;98452.09;1699382;84;21451;-71
2022/03/30 11:28:04;;;;;;;32.45;21.77;;;;;;;8.80;82.08;98450.41;1699424;84;20975;-70
2022/03/30 11:30:38;;;;;;;36.13;24.07;;;;;;;8.88;82.12;98442.67;1699004;84;20908;-69
2022/03/30 11:33:22;;;;;;;37.38;24.15;;;;;;;8.99;81.93;98443.64;1696180;84;20903;-70
2022/03/30 11:35:52;;;;;;;40.03;24.63;;;;;;;9.04;81.83;98445.38;1699374;84;21216;-69
2022/03/30 11:38:28;;;;;;;31.48;22.93;;;;;;;9.07;81.45;98442.77;1698845;84;21079;-73
2022/03/30 11:41:06;;;;;;;33.53;20.77;;;;;;;9.08;81.49;98442.17;1699406;84;21436;-72
2022/03/30 11:46:32;;;;;;;33.40;22.60;;;;;;;9.04;80.01;98443.41;1698104;84;20927;-68
2022/03/30 11:49:01;;;;;;;38.65;22.30;;;;;;;9.01;80.67;98444.91;1699451;84;21239;-70
2022/03/30 11:51:30;;;;;;;33.95;22.00;;;;;;;9.06;81.12;98447.23;1699415;84;20896;-70
2022/03/30 11:54:14;;;;;;;37.23;20.53;;;;;;;9.09;81.09;98441.84;1699086;84;20860;-69
2022/03/30 11:56:43;;;;;;;28.05;19.67;;;;;;;9.13;80.91;98444.16;1699530;84;21689;-69